sensor_id;sensor_type;location;lat;lon;timestamp;P1;durP1;ratioP1;P2;durP2;ratioP2
11305;SDS011;5708;50.660;6.778;2024-02-21T00:02:00;16.40;;;6.10;;
11305;SDS011;5708;50.660;6.778;2024-02-21T00:04:25;14.60;;;5.88;;
11305;SDS011;5708;50.660;6.778;2024-02-21T00:06:51;16.40;;;5.82;;
11305;SDS011;5708;50.660;6.778;2024-02-21T00:09:16;14.20;;;5.63;;
11305;SDS011;5708;50.660;6.778;2024-02-21T00:11:43;14.70;;;5.60;;
11305;SDS011;5708;50.660;6.778;2024-02-21T00:14:08;16.08;;;5.95;;
11305;SDS011;5708;50.660;6.778;2024-02-21T00:16:34;15.60;;;5.85;;
11305;SDS011;5708;50.660;6.778;2024-02-21T00:18:59;14.88;;;6.15;;
11305;SDS011;5708;50.660;6.778;2024-02-21T00:21:24;16.13;;;5.90;;
11305;SDS011;5708;50.660;6.778;2024-02-21T00:23:50;18.50;;;6.18;;
11305;SDS011;5708;50.660;6.778;2024-02-21T00:26:15;19.48;;;6.00;;
11305;SDS011;5708;50.660;6.778;2024-02-21T00:28:41;15.50;;;5.43;;
11305;SDS011;5708;50.660;6.778;2024-02-21T00:31:06;17.90;;;6.38;;
11305;SDS011;5708;50.660;6.778;2024-02-21T00:33:32;12.55;;;5.63;;
11305;SDS011;5708;50.660;6.778;2024-02-21T00:35:57;20.23;;;6.43;;
11305;SDS011;5708;50.660;6.778;2024-02-21T00:38:22;17.33;;;6.28;;
11305;SDS011;5708;50.660;6.778;2024-02-21T00:40:48;18.08;;;5.95;;
11305;SDS011;5708;50.660;6.778;2024-02-21T00:43:13;15.27;;;5.60;;
11305;SDS011;5708;50.660;6.778;2024-02-21T00:45:38;14.65;;;5.18;;
11305;SDS011;5708;50.660;6.778;2024-02-21T00:48:07;15.65;;;5.30;;
11305;SDS011;5708;50.660;6.778;2024-02-21T00:50:32;14.82;;;5.72;;
11305;SDS011;5708;50.660;6.778;2024-02-21T00:52:58;13.57;;;5.65;;
11305;SDS011;5708;50.660;6.778;2024-02-21T00:55:23;12.93;;;6.13;;
11305;SDS011;5708;50.660;6.778;2024-02-21T00:57:49;19.45;;;6.53;;
11305;SDS011;5708;50.660;6.778;2024-02-21T01:00:14;18.15;;;6.35;;
11305;SDS011;5708;50.660;6.778;2024-02-21T01:02:43;15.63;;;6.53;;
11305;SDS011;5708;50.660;6.778;2024-02-21T01:05:09;13.35;;;5.28;;
11305;SDS011;5708;50.660;6.778;2024-02-21T01:07:42;18.10;;;6.55;;
11305;SDS011;5708;50.660;6.778;2024-02-21T01:10:07;15.57;;;5.95;;
11305;SDS011;5708;50.660;6.778;2024-02-21T01:12:33;21.45;;;6.43;;
11305;SDS011;5708;50.660;6.778;2024-02-21T01:14:58;16.00;;;5.57;;
11305;SDS011;5708;50.660;6.778;2024-02-21T01:17:24;15.35;;;6.15;;
11305;SDS011;5708;50.660;6.778;2024-02-21T01:19:49;14.88;;;5.50;;
11305;SDS011;5708;50.660;6.778;2024-02-21T01:22:15;15.77;;;5.72;;
11305;SDS011;5708;50.660;6.778;2024-02-21T01:24:41;19.73;;;5.95;;
11305;SDS011;5708;50.660;6.778;2024-02-21T01:27:06;17.40;;;6.40;;
11305;SDS011;5708;50.660;6.778;2024-02-21T01:29:32;18.70;;;5.70;;
11305;SDS011;5708;50.660;6.778;2024-02-21T01:31:57;11.77;;;5.15;;
11305;SDS011;5708;50.660;6.778;2024-02-21T01:34:23;15.50;;;5.90;;
11305;SDS011;5708;50.660;6.778;2024-02-21T01:36:48;17.30;;;6.05;;
11305;SDS011;5708;50.660;6.778;2024-02-21T01:39:14;15.77;;;5.75;;
11305;SDS011;5708;50.660;6.778;2024-02-21T01:41:45;15.32;;;6.13;;
11305;SDS011;5708;50.660;6.778;2024-02-21T01:44:10;15.15;;;5.78;;
11305;SDS011;5708;50.660;6.778;2024-02-21T01:46:35;16.90;;;6.32;;
11305;SDS011;5708;50.660;6.778;2024-02-21T01:49:01;17.77;;;6.50;;
11305;SDS011;5708;50.660;6.778;2024-02-21T01:51:27;17.77;;;5.95;;
11305;SDS011;5708;50.660;6.778;2024-02-21T01:53:53;13.93;;;5.32;;
11305;SDS011;5708;50.660;6.778;2024-02-21T01:56:20;14.32;;;5.53;;
11305;SDS011;5708;50.660;6.778;2024-02-21T01:58:49;13.93;;;5.38;;
11305;SDS011;5708;50.660;6.778;2024-02-21T02:01:16;16.13;;;5.70;;
11305;SDS011;5708;50.660;6.778;2024-02-21T02:03:42;18.15;;;5.63;;
11305;SDS011;5708;50.660;6.778;2024-02-21T02:06:08;14.38;;;5.28;;
11305;SDS011;5708;50.660;6.778;2024-02-21T02:08:37;15.27;;;5.82;;
11305;SDS011;5708;50.660;6.778;2024-02-21T02:11:02;15.18;;;5.82;;
11305;SDS011;5708;50.660;6.778;2024-02-21T02:13:28;16.00;;;5.50;;
11305;SDS011;5708;50.660;6.778;2024-02-21T02:15:53;18.20;;;5.43;;
11305;SDS011;5708;50.660;6.778;2024-02-21T02:18:30;15.13;;;4.90;;
11305;SDS011;5708;50.660;6.778;2024-02-21T02:20:55;15.52;;;5.72;;
11305;SDS011;5708;50.660;6.778;2024-02-21T02:23:31;15.68;;;5.80;;
11305;SDS011;5708;50.660;6.778;2024-02-21T02:25:57;16.75;;;5.78;;
11305;SDS011;5708;50.660;6.778;2024-02-21T02:28:26;14.35;;;5.38;;
11305;SDS011;5708;50.660;6.778;2024-02-21T02:30:51;17.63;;;5.97;;
11305;SDS011;5708;50.660;6.778;2024-02-21T02:33:17;13.10;;;5.90;;
11305;SDS011;5708;50.660;6.778;2024-02-21T02:35:43;15.00;;;5.50;;
11305;SDS011;5708;50.660;6.778;2024-02-21T02:38:11;17.05;;;5.45;;
11305;SDS011;5708;50.660;6.778;2024-02-21T02:40:38;15.43;;;5.75;;
11305;SDS011;5708;50.660;6.778;2024-02-21T02:43:13;18.02;;;7.32;;
11305;SDS011;5708;50.660;6.778;2024-02-21T02:45:38;22.42;;;6.50;;
11305;SDS011;5708;50.660;6.778;2024-02-21T02:48:04;15.10;;;6.63;;
11305;SDS011;5708;50.660;6.778;2024-02-21T02:50:39;20.23;;;7.00;;
11305;SDS011;5708;50.660;6.778;2024-02-21T02:53:07;20.63;;;6.70;;
11305;SDS011;5708;50.660;6.778;2024-02-21T02:55:32;18.13;;;6.47;;
11305;SDS011;5708;50.660;6.778;2024-02-21T02:57:58;14.88;;;5.55;;
11305;SDS011;5708;50.660;6.778;2024-02-21T03:00:24;23.45;;;7.22;;
11305;SDS011;5708;50.660;6.778;2024-02-21T03:02:55;15.80;;;5.82;;
11305;SDS011;5708;50.660;6.778;2024-02-21T03:05:21;16.45;;;5.35;;
11305;SDS011;5708;50.660;6.778;2024-02-21T03:07:47;14.60;;;5.30;;
11305;SDS011;5708;50.660;6.778;2024-02-21T03:10:14;13.45;;;6.03;;
11305;SDS011;5708;50.660;6.778;2024-02-21T03:12:41;19.90;;;6.00;;
11305;SDS011;5708;50.660;6.778;2024-02-21T03:15:09;16.60;;;6.72;;
11305;SDS011;5708;50.660;6.778;2024-02-21T03:17:35;20.48;;;5.90;;
11305;SDS011;5708;50.660;6.778;2024-02-21T03:20:04;16.67;;;5.85;;
11305;SDS011;5708;50.660;6.778;2024-02-21T03:23:07;12.57;;;5.70;;
11305;SDS011;5708;50.660;6.778;2024-02-21T03:56:32;13.20;;;4.72;;
11305;SDS011;5708;50.660;6.778;2024-02-21T03:59:19;14.88;;;5.20;;
11305;SDS011;5708;50.660;6.778;2024-02-21T04:08:09;13.00;;;5.07;;
11305;SDS011;5708;50.660;6.778;2024-02-21T04:10:35;13.85;;;5.00;;
11305;SDS011;5708;50.660;6.778;2024-02-21T04:13:01;14.35;;;5.05;;
11305;SDS011;5708;50.660;6.778;2024-02-21T04:18:08;15.07;;;5.45;;
11305;SDS011;5708;50.660;6.778;2024-02-21T04:20:33;16.08;;;4.65;;
11305;SDS011;5708;50.660;6.778;2024-02-21T04:22:59;15.45;;;4.97;;
11305;SDS011;5708;50.660;6.778;2024-02-21T04:25:33;16.60;;;5.32;;
11305;SDS011;5708;50.660;6.778;2024-02-21T04:28:01;16.63;;;5.38;;
11305;SDS011;5708;50.660;6.778;2024-02-21T04:30:41;12.93;;;4.53;;
11305;SDS011;5708;50.660;6.778;2024-02-21T04:33:06;14.43;;;5.22;;
11305;SDS011;5708;50.660;6.778;2024-02-21T04:35:32;15.32;;;4.78;;
11305;SDS011;5708;50.660;6.778;2024-02-21T04:37:58;15.27;;;5.10;;
11305;SDS011;5708;50.660;6.778;2024-02-21T04:40:23;12.90;;;4.22;;
11305;SDS011;5708;50.660;6.778;2024-02-21T04:42:49;14.80;;;5.05;;
11305;SDS011;5708;50.660;6.778;2024-02-21T04:45:17;13.00;;;4.65;;
11305;SDS011;5708;50.660;6.778;2024-02-21T04:48:21;13.68;;;4.70;;
11305;SDS011;5708;50.660;6.778;2024-02-21T04:50:50;10.68;;;4.65;;
11305;SDS011;5708;50.660;6.778;2024-02-21T04:53:19;12.32;;;4.50;;
11305;SDS011;5708;50.660;6.778;2024-02-21T04:55:45;14.98;;;4.90;;
11305;SDS011;5708;50.660;6.778;2024-02-21T04:58:11;16.63;;;4.38;;
11305;SDS011;5708;50.660;6.778;2024-02-21T05:00:37;12.40;;;4.18;;
11305;SDS011;5708;50.660;6.778;2024-02-21T05:03:16;11.77;;;4.18;;
11305;SDS011;5708;50.660;6.778;2024-02-21T05:06:01;15.02;;;4.60;;
11305;SDS011;5708;50.660;6.778;2024-02-21T05:08:46;10.90;;;4.07;;
11305;SDS011;5708;50.660;6.778;2024-02-21T05:11:12;12.20;;;3.67;;
11305;SDS011;5708;50.660;6.778;2024-02-21T05:13:38;13.35;;;4.13;;
11305;SDS011;5708;50.660;6.778;2024-02-21T05:16:04;8.75;;;3.75;;
11305;SDS011;5708;50.660;6.778;2024-02-21T05:18:30;9.85;;;3.40;;
11305;SDS011;5708;50.660;6.778;2024-02-21T05:20:55;13.00;;;3.40;;
11305;SDS011;5708;50.660;6.778;2024-02-21T05:23:21;12.63;;;3.53;;
11305;SDS011;5708;50.660;6.778;2024-02-21T05:25:46;10.88;;;3.80;;
11305;SDS011;5708;50.660;6.778;2024-02-21T05:28:12;11.45;;;3.72;;
11305;SDS011;5708;50.660;6.778;2024-02-21T05:30:37;12.73;;;3.53;;
11305;SDS011;5708;50.660;6.778;2024-02-21T05:33:07;9.52;;;3.80;;
11305;SDS011;5708;50.660;6.778;2024-02-21T05:35:35;16.17;;;4.80;;
11305;SDS011;5708;50.660;6.778;2024-02-21T05:38:02;11.40;;;4.70;;
11305;SDS011;5708;50.660;6.778;2024-02-21T05:40:31;12.40;;;4.00;;
11305;SDS011;5708;50.660;6.778;2024-02-21T05:42:57;13.85;;;4.50;;
11305;SDS011;5708;50.660;6.778;2024-02-21T05:45:23;11.70;;;4.30;;
11305;SDS011;5708;50.660;6.778;2024-02-21T05:47:48;15.68;;;4.97;;
11305;SDS011;5708;50.660;6.778;2024-02-21T05:50:15;13.85;;;5.00;;
11305;SDS011;5708;50.660;6.778;2024-02-21T05:52:40;13.85;;;4.15;;
11305;SDS011;5708;50.660;6.778;2024-02-21T05:55:06;13.48;;;4.95;;
11305;SDS011;5708;50.660;6.778;2024-02-21T05:57:32;14.73;;;4.43;;
11305;SDS011;5708;50.660;6.778;2024-02-21T06:00:03;13.20;;;5.22;;
11305;SDS011;5708;50.660;6.778;2024-02-21T06:02:30;14.52;;;4.43;;
11305;SDS011;5708;50.660;6.778;2024-02-21T06:05:01;15.52;;;5.07;;
11305;SDS011;5708;50.660;6.778;2024-02-21T06:07:32;16.10;;;5.10;;
11305;SDS011;5708;50.660;6.778;2024-02-21T06:09:58;13.85;;;5.00;;
11305;SDS011;5708;50.660;6.778;2024-02-21T06:12:23;13.88;;;4.68;;
11305;SDS011;5708;50.660;6.778;2024-02-21T06:15:02;14.00;;;4.43;;
11305;SDS011;5708;50.660;6.778;2024-02-21T06:17:39;14.73;;;5.43;;
11305;SDS011;5708;50.660;6.778;2024-02-21T06:20:12;19.02;;;5.28;;
11305;SDS011;5708;50.660;6.778;2024-02-21T06:22:38;15.15;;;4.13;;
11305;SDS011;5708;50.660;6.778;2024-02-21T06:25:12;11.55;;;4.43;;
11305;SDS011;5708;50.660;6.778;2024-02-21T06:27:38;12.13;;;4.20;;
11305;SDS011;5708;50.660;6.778;2024-02-21T06:30:04;10.02;;;3.92;;
11305;SDS011;5708;50.660;6.778;2024-02-21T06:33:15;12.15;;;4.13;;
11305;SDS011;5708;50.660;6.778;2024-02-21T06:36:06;13.18;;;4.30;;
11305;SDS011;5708;50.660;6.778;2024-02-21T06:38:40;14.07;;;4.50;;
11305;SDS011;5708;50.660;6.778;2024-02-21T06:43:59;15.10;;;4.47;;
11305;SDS011;5708;50.660;6.778;2024-02-21T06:46:53;12.68;;;4.30;;
11305;SDS011;5708;50.660;6.778;2024-02-21T06:49:20;11.32;;;4.20;;
11305;SDS011;5708;50.660;6.778;2024-02-21T06:51:46;13.82;;;4.30;;
11305;SDS011;5708;50.660;6.778;2024-02-21T06:54:11;14.07;;;4.25;;
11305;SDS011;5708;50.660;6.778;2024-02-21T06:56:37;15.07;;;5.07;;
11305;SDS011;5708;50.660;6.778;2024-02-21T06:59:02;10.68;;;4.53;;
11305;SDS011;5708;50.660;6.778;2024-02-21T07:01:34;11.23;;;4.38;;
11305;SDS011;5708;50.660;6.778;2024-02-21T07:03:59;13.27;;;4.40;;
11305;SDS011;5708;50.660;6.778;2024-02-21T07:06:25;15.25;;;5.07;;
11305;SDS011;5708;50.660;6.778;2024-02-21T07:08:50;16.02;;;4.18;;
11305;SDS011;5708;50.660;6.778;2024-02-21T07:11:16;14.45;;;5.07;;
11305;SDS011;5708;50.660;6.778;2024-02-21T07:13:42;15.13;;;4.25;;
11305;SDS011;5708;50.660;6.778;2024-02-21T07:16:07;15.30;;;4.63;;
11305;SDS011;5708;50.660;6.778;2024-02-21T07:18:33;12.45;;;4.45;;
11305;SDS011;5708;50.660;6.778;2024-02-21T07:20:58;18.10;;;5.03;;
11305;SDS011;5708;50.660;6.778;2024-02-21T07:23:24;15.35;;;5.07;;
11305;SDS011;5708;50.660;6.778;2024-02-21T07:26:42;15.10;;;4.85;;
11305;SDS011;5708;50.660;6.778;2024-02-21T07:29:29;16.60;;;5.45;;
11305;SDS011;5708;50.660;6.778;2024-02-21T07:31:55;16.10;;;4.90;;
11305;SDS011;5708;50.660;6.778;2024-02-21T07:34:20;13.65;;;4.60;;
11305;SDS011;5708;50.660;6.778;2024-02-21T07:36:46;16.70;;;4.88;;
11305;SDS011;5708;50.660;6.778;2024-02-21T07:39:11;15.25;;;4.90;;
11305;SDS011;5708;50.660;6.778;2024-02-21T07:41:37;12.25;;;4.70;;
11305;SDS011;5708;50.660;6.778;2024-02-21T07:44:04;19.30;;;4.93;;
11305;SDS011;5708;50.660;6.778;2024-02-21T07:46:30;14.18;;;5.25;;
11305;SDS011;5708;50.660;6.778;2024-02-21T07:48:58;19.33;;;5.38;;
11305;SDS011;5708;50.660;6.778;2024-02-21T07:51:27;19.67;;;6.07;;
11305;SDS011;5708;50.660;6.778;2024-02-21T07:53:53;16.25;;;5.03;;
11305;SDS011;5708;50.660;6.778;2024-02-21T07:56:19;15.27;;;4.97;;
11305;SDS011;5708;50.660;6.778;2024-02-21T07:58:44;18.60;;;5.38;;
11305;SDS011;5708;50.660;6.778;2024-02-21T08:01:10;14.60;;;5.05;;
11305;SDS011;5708;50.660;6.778;2024-02-21T08:03:35;15.82;;;4.28;;
11305;SDS011;5708;50.660;6.778;2024-02-21T08:06:04;14.98;;;4.55;;
11305;SDS011;5708;50.660;6.778;2024-02-21T08:08:29;18.60;;;4.75;;
11305;SDS011;5708;50.660;6.778;2024-02-21T08:10:55;14.27;;;4.35;;
11305;SDS011;5708;50.660;6.778;2024-02-21T08:13:29;13.82;;;4.78;;
11305;SDS011;5708;50.660;6.778;2024-02-21T08:16:03;12.73;;;4.45;;
11305;SDS011;5708;50.660;6.778;2024-02-21T08:18:28;14.60;;;4.70;;
11305;SDS011;5708;50.660;6.778;2024-02-21T08:20:54;14.15;;;4.32;;
11305;SDS011;5708;50.660;6.778;2024-02-21T08:23:19;16.10;;;5.20;;
11305;SDS011;5708;50.660;6.778;2024-02-21T08:25:48;14.27;;;3.92;;
11305;SDS011;5708;50.660;6.778;2024-02-21T08:28:17;16.30;;;4.53;;
11305;SDS011;5708;50.660;6.778;2024-02-21T08:30:43;13.00;;;4.10;;
11305;SDS011;5708;50.660;6.778;2024-02-21T08:33:12;14.57;;;4.88;;
11305;SDS011;5708;50.660;6.778;2024-02-21T08:35:38;12.27;;;4.80;;
11305;SDS011;5708;50.660;6.778;2024-02-21T08:38:03;12.90;;;4.30;;
11305;SDS011;5708;50.660;6.778;2024-02-21T08:40:29;14.52;;;4.72;;
11305;SDS011;5708;50.660;6.778;2024-02-21T08:42:54;11.85;;;3.78;;
11305;SDS011;5708;50.660;6.778;2024-02-21T08:45:20;11.82;;;4.10;;
11305;SDS011;5708;50.660;6.778;2024-02-21T08:47:45;19.70;;;4.00;;
11305;SDS011;5708;50.660;6.778;2024-02-21T08:50:11;11.77;;;3.45;;
11305;SDS011;5708;50.660;6.778;2024-02-21T08:52:36;12.27;;;3.40;;
11305;SDS011;5708;50.660;6.778;2024-02-21T08:55:01;11.43;;;3.47;;
11305;SDS011;5708;50.660;6.778;2024-02-21T08:57:27;12.05;;;3.55;;
11305;SDS011;5708;50.660;6.778;2024-02-21T08:59:53;12.10;;;3.83;;
11305;SDS011;5708;50.660;6.778;2024-02-21T09:02:19;15.55;;;4.00;;
11305;SDS011;5708;50.660;6.778;2024-02-21T09:04:44;16.52;;;3.72;;
11305;SDS011;5708;50.660;6.778;2024-02-21T09:07:10;12.35;;;3.50;;
11305;SDS011;5708;50.660;6.778;2024-02-21T09:09:36;13.13;;;3.67;;
11305;SDS011;5708;50.660;6.778;2024-02-21T09:12:03;10.45;;;3.75;;
11305;SDS011;5708;50.660;6.778;2024-02-21T09:14:34;11.35;;;3.42;;
11305;SDS011;5708;50.660;6.778;2024-02-21T09:17:05;12.25;;;3.60;;
11305;SDS011;5708;50.660;6.778;2024-02-21T09:19:31;11.02;;;3.80;;
11305;SDS011;5708;50.660;6.778;2024-02-21T09:22:01;12.77;;;3.45;;
11305;SDS011;5708;50.660;6.778;2024-02-21T09:24:30;11.07;;;3.45;;
11305;SDS011;5708;50.660;6.778;2024-02-21T09:26:55;11.13;;;3.80;;
11305;SDS011;5708;50.660;6.778;2024-02-21T09:29:21;11.73;;;3.22;;
11305;SDS011;5708;50.660;6.778;2024-02-21T09:31:46;10.48;;;3.80;;
11305;SDS011;5708;50.660;6.778;2024-02-21T09:34:12;11.02;;;3.33;;
11305;SDS011;5708;50.660;6.778;2024-02-21T09:36:38;12.98;;;3.50;;
11305;SDS011;5708;50.660;6.778;2024-02-21T09:39:05;11.23;;;3.50;;
11305;SDS011;5708;50.660;6.778;2024-02-21T09:41:30;13.35;;;3.88;;
11305;SDS011;5708;50.660;6.778;2024-02-21T09:43:56;12.38;;;4.03;;
11305;SDS011;5708;50.660;6.778;2024-02-21T09:46:56;14.43;;;3.20;;
11305;SDS011;5708;50.660;6.778;2024-02-21T09:51:53;11.57;;;3.28;;
11305;SDS011;5708;50.660;6.778;2024-02-21T09:54:19;11.75;;;3.67;;
11305;SDS011;5708;50.660;6.778;2024-02-21T09:56:46;10.05;;;3.10;;
11305;SDS011;5708;50.660;6.778;2024-02-21T09:59:12;12.88;;;3.50;;
11305;SDS011;5708;50.660;6.778;2024-02-21T10:01:38;12.43;;;2.90;;
11305;SDS011;5708;50.660;6.778;2024-02-21T10:04:04;9.70;;;2.95;;
11305;SDS011;5708;50.660;6.778;2024-02-21T10:06:29;11.80;;;2.90;;
11305;SDS011;5708;50.660;6.778;2024-02-21T10:08:55;10.43;;;3.10;;
11305;SDS011;5708;50.660;6.778;2024-02-21T10:11:23;8.85;;;2.97;;
11305;SDS011;5708;50.660;6.778;2024-02-21T10:13:49;11.45;;;3.13;;
11305;SDS011;5708;50.660;6.778;2024-02-21T10:16:15;10.40;;;2.53;;
11305;SDS011;5708;50.660;6.778;2024-02-21T10:18:40;9.52;;;2.90;;
11305;SDS011;5708;50.660;6.778;2024-02-21T10:21:06;9.65;;;3.28;;
11305;SDS011;5708;50.660;6.778;2024-02-21T10:23:45;7.68;;;2.65;;
11305;SDS011;5708;50.660;6.778;2024-02-21T10:26:11;10.23;;;3.20;;
11305;SDS011;5708;50.660;6.778;2024-02-21T10:28:37;9.88;;;2.97;;
11305;SDS011;5708;50.660;6.778;2024-02-21T10:31:07;10.57;;;3.22;;
11305;SDS011;5708;50.660;6.778;2024-02-21T10:33:33;8.65;;;2.97;;
11305;SDS011;5708;50.660;6.778;2024-02-21T10:36:08;11.18;;;3.30;;
11305;SDS011;5708;50.660;6.778;2024-02-21T10:38:35;8.27;;;2.90;;
11305;SDS011;5708;50.660;6.778;2024-02-21T10:41:06;16.15;;;3.47;;
11305;SDS011;5708;50.660;6.778;2024-02-21T10:43:37;11.95;;;3.13;;
11305;SDS011;5708;50.660;6.778;2024-02-21T10:46:07;10.10;;;3.00;;
11305;SDS011;5708;50.660;6.778;2024-02-21T10:48:46;12.88;;;3.90;;
11305;SDS011;5708;50.660;6.778;2024-02-21T10:51:19;14.43;;;4.40;;
11305;SDS011;5708;50.660;6.778;2024-02-21T10:56:38;20.77;;;6.28;;
11305;SDS011;5708;50.660;6.778;2024-02-21T10:59:05;11.65;;;3.83;;
11305;SDS011;5708;50.660;6.778;2024-02-21T11:01:31;11.60;;;3.75;;
11305;SDS011;5708;50.660;6.778;2024-02-21T11:03:58;11.85;;;4.43;;
11305;SDS011;5708;50.660;6.778;2024-02-21T11:06:26;15.73;;;3.55;;
11305;SDS011;5708;50.660;6.778;2024-02-21T11:09:28;8.18;;;3.45;;
11305;SDS011;5708;50.660;6.778;2024-02-21T11:11:44;11.23;;;3.90;;
11305;SDS011;5708;50.660;6.778;2024-02-21T11:14:10;9.00;;;3.63;;
11305;SDS011;5708;50.660;6.778;2024-02-21T11:16:39;15.02;;;4.70;;
11305;SDS011;5708;50.660;6.778;2024-02-21T11:19:09;12.30;;;4.18;;
11305;SDS011;5708;50.660;6.778;2024-02-21T11:21:36;10.45;;;3.70;;
11305;SDS011;5708;50.660;6.778;2024-02-21T11:24:02;8.60;;;3.10;;
11305;SDS011;5708;50.660;6.778;2024-02-21T11:26:29;14.30;;;3.70;;
11305;SDS011;5708;50.660;6.778;2024-02-21T11:31:27;10.82;;;3.45;;
11305;SDS011;5708;50.660;6.778;2024-02-21T11:34:09;13.98;;;4.60;;
11305;SDS011;5708;50.660;6.778;2024-02-21T11:36:35;11.20;;;4.60;;
11305;SDS011;5708;50.660;6.778;2024-02-21T11:39:04;14.57;;;4.60;;
11305;SDS011;5708;50.660;6.778;2024-02-21T11:41:31;12.43;;;4.10;;
11305;SDS011;5708;50.660;6.778;2024-02-21T11:43:56;10.48;;;4.35;;
11305;SDS011;5708;50.660;6.778;2024-02-21T11:46:22;11.82;;;4.80;;
11305;SDS011;5708;50.660;6.778;2024-02-21T11:48:48;9.95;;;3.60;;
11305;SDS011;5708;50.660;6.778;2024-02-21T11:51:24;11.57;;;4.38;;
11305;SDS011;5708;50.660;6.778;2024-02-21T11:53:51;10.75;;;3.22;;
11305;SDS011;5708;50.660;6.778;2024-02-21T11:56:17;12.82;;;3.50;;
11305;SDS011;5708;50.660;6.778;2024-02-21T11:58:43;11.27;;;3.00;;
11305;SDS011;5708;50.660;6.778;2024-02-21T12:01:08;8.38;;;3.15;;
11305;SDS011;5708;50.660;6.778;2024-02-21T12:03:34;10.07;;;3.55;;
11305;SDS011;5708;50.660;6.778;2024-02-21T12:06:01;10.80;;;3.42;;
11305;SDS011;5708;50.660;6.778;2024-02-21T12:08:28;10.68;;;3.78;;
11305;SDS011;5708;50.660;6.778;2024-02-21T12:10:54;9.02;;;3.35;;
11305;SDS011;5708;50.660;6.778;2024-02-21T12:13:22;7.95;;;3.03;;
11305;SDS011;5708;50.660;6.778;2024-02-21T12:15:48;10.55;;;3.55;;
11305;SDS011;5708;50.660;6.778;2024-02-21T12:18:16;9.18;;;3.45;;
11305;SDS011;5708;50.660;6.778;2024-02-21T12:20:42;10.73;;;3.58;;
11305;SDS011;5708;50.660;6.778;2024-02-21T12:23:09;9.80;;;3.10;;
11305;SDS011;5708;50.660;6.778;2024-02-21T12:25:35;12.60;;;3.40;;
11305;SDS011;5708;50.660;6.778;2024-02-21T12:28:00;10.15;;;4.10;;
11305;SDS011;5708;50.660;6.778;2024-02-21T12:30:26;11.18;;;3.55;;
11305;SDS011;5708;50.660;6.778;2024-02-21T12:32:51;11.95;;;3.45;;
11305;SDS011;5708;50.660;6.778;2024-02-21T12:35:17;11.75;;;3.92;;
11305;SDS011;5708;50.660;6.778;2024-02-21T12:37:45;10.18;;;3.30;;
11305;SDS011;5708;50.660;6.778;2024-02-21T12:40:10;12.05;;;3.38;;
11305;SDS011;5708;50.660;6.778;2024-02-21T12:42:36;8.48;;;2.78;;
11305;SDS011;5708;50.660;6.778;2024-02-21T12:45:02;15.68;;;3.15;;
11305;SDS011;5708;50.660;6.778;2024-02-21T12:47:28;10.20;;;3.10;;
11305;SDS011;5708;50.660;6.778;2024-02-21T12:49:53;11.18;;;2.85;;
11305;SDS011;5708;50.660;6.778;2024-02-21T12:52:19;11.50;;;3.72;;
11305;SDS011;5708;50.660;6.778;2024-02-21T12:54:44;10.65;;;3.22;;
11305;SDS011;5708;50.660;6.778;2024-02-21T12:57:09;14.05;;;5.18;;
11305;SDS011;5708;50.660;6.778;2024-02-21T12:59:35;14.10;;;5.00;;
11305;SDS011;5708;50.660;6.778;2024-02-21T13:02:00;11.38;;;3.28;;
11305;SDS011;5708;50.660;6.778;2024-02-21T13:04:25;11.07;;;3.88;;
11305;SDS011;5708;50.660;6.778;2024-02-21T13:06:51;9.75;;;3.35;;
11305;SDS011;5708;50.660;6.778;2024-02-21T13:09:16;8.60;;;2.70;;
11305;SDS011;5708;50.660;6.778;2024-02-21T13:11:41;9.32;;;2.97;;
11305;SDS011;5708;50.660;6.778;2024-02-21T13:14:08;10.52;;;2.58;;
11305;SDS011;5708;50.660;6.778;2024-02-21T13:16:33;10.48;;;2.90;;
11305;SDS011;5708;50.660;6.778;2024-02-21T13:19:04;14.23;;;3.10;;
11305;SDS011;5708;50.660;6.778;2024-02-21T13:21:29;9.45;;;2.90;;
11305;SDS011;5708;50.660;6.778;2024-02-21T13:23:54;11.75;;;2.92;;
11305;SDS011;5708;50.660;6.778;2024-02-21T13:26:21;15.13;;;3.88;;
11305;SDS011;5708;50.660;6.778;2024-02-21T13:28:46;10.40;;;3.67;;
11305;SDS011;5708;50.660;6.778;2024-02-21T13:31:13;9.93;;;3.30;;
11305;SDS011;5708;50.660;6.778;2024-02-21T13:33:38;11.90;;;3.40;;
11305;SDS011;5708;50.660;6.778;2024-02-21T13:36:03;12.00;;;3.03;;
11305;SDS011;5708;50.660;6.778;2024-02-21T13:38:29;6.88;;;2.80;;
11305;SDS011;5708;50.660;6.778;2024-02-21T13:40:54;8.23;;;2.65;;
11305;SDS011;5708;50.660;6.778;2024-02-21T13:43:20;6.32;;;2.15;;
11305;SDS011;5708;50.660;6.778;2024-02-21T13:45:55;9.40;;;2.58;;
11305;SDS011;5708;50.660;6.778;2024-02-21T13:48:23;10.40;;;3.30;;
11305;SDS011;5708;50.660;6.778;2024-02-21T13:50:50;9.02;;;2.80;;
11305;SDS011;5708;50.660;6.778;2024-02-21T13:53:15;10.15;;;3.53;;
11305;SDS011;5708;50.660;6.778;2024-02-21T13:55:43;8.40;;;2.80;;
11305;SDS011;5708;50.660;6.778;2024-02-21T13:58:08;8.13;;;2.47;;
11305;SDS011;5708;50.660;6.778;2024-02-21T14:00:34;7.35;;;2.42;;
11305;SDS011;5708;50.660;6.778;2024-02-21T14:03:01;9.48;;;2.67;;
11305;SDS011;5708;50.660;6.778;2024-02-21T14:05:26;9.82;;;2.50;;
11305;SDS011;5708;50.660;6.778;2024-02-21T14:07:51;8.27;;;2.38;;
11305;SDS011;5708;50.660;6.778;2024-02-21T14:10:19;8.77;;;2.13;;
11305;SDS011;5708;50.660;6.778;2024-02-21T14:12:47;9.68;;;2.30;;
11305;SDS011;5708;50.660;6.778;2024-02-21T14:15:13;7.88;;;2.33;;
11305;SDS011;5708;50.660;6.778;2024-02-21T14:17:39;6.57;;;2.17;;
11305;SDS011;5708;50.660;6.778;2024-02-21T14:20:04;6.70;;;2.13;;
11305;SDS011;5708;50.660;6.778;2024-02-21T14:22:31;8.05;;;2.28;;
11305;SDS011;5708;50.660;6.778;2024-02-21T14:24:56;9.18;;;2.35;;
11305;SDS011;5708;50.660;6.778;2024-02-21T14:27:22;10.80;;;3.08;;
11305;SDS011;5708;50.660;6.778;2024-02-21T14:29:47;8.02;;;2.17;;
11305;SDS011;5708;50.660;6.778;2024-02-21T14:32:12;7.78;;;2.55;;
11305;SDS011;5708;50.660;6.778;2024-02-21T14:34:38;8.13;;;2.10;;
11305;SDS011;5708;50.660;6.778;2024-02-21T14:37:03;10.10;;;2.47;;
11305;SDS011;5708;50.660;6.778;2024-02-21T14:39:29;6.28;;;2.05;;
11305;SDS011;5708;50.660;6.778;2024-02-21T14:41:54;9.10;;;2.15;;
11305;SDS011;5708;50.660;6.778;2024-02-21T14:44:20;7.20;;;2.08;;
11305;SDS011;5708;50.660;6.778;2024-02-21T14:46:45;7.78;;;2.53;;
11305;SDS011;5708;50.660;6.778;2024-02-21T14:49:10;7.55;;;2.13;;
11305;SDS011;5708;50.660;6.778;2024-02-21T14:51:36;5.90;;;2.28;;
11305;SDS011;5708;50.660;6.778;2024-02-21T14:54:01;5.82;;;2.00;;
11305;SDS011;5708;50.660;6.778;2024-02-21T14:56:27;9.55;;;2.60;;
11305;SDS011;5708;50.660;6.778;2024-02-21T14:58:52;9.52;;;2.40;;
11305;SDS011;5708;50.660;6.778;2024-02-21T15:01:17;9.48;;;2.38;;
11305;SDS011;5708;50.660;6.778;2024-02-21T15:03:43;12.20;;;2.47;;
11305;SDS011;5708;50.660;6.778;2024-02-21T15:06:08;6.80;;;2.67;;
11305;SDS011;5708;50.660;6.778;2024-02-21T15:08:34;8.38;;;2.97;;
11305;SDS011;5708;50.660;6.778;2024-02-21T15:11:00;7.22;;;2.55;;
11305;SDS011;5708;50.660;6.778;2024-02-21T15:13:26;11.85;;;2.70;;
11305;SDS011;5708;50.660;6.778;2024-02-21T15:15:51;11.90;;;2.88;;
11305;SDS011;5708;50.660;6.778;2024-02-21T15:18:17;7.65;;;2.05;;
11305;SDS011;5708;50.660;6.778;2024-02-21T15:20:42;8.02;;;2.35;;
11305;SDS011;5708;50.660;6.778;2024-02-21T15:23:08;8.00;;;2.53;;
11305;SDS011;5708;50.660;6.778;2024-02-21T15:25:33;7.75;;;2.10;;
11305;SDS011;5708;50.660;6.778;2024-02-21T15:27:59;8.35;;;2.38;;
11305;SDS011;5708;50.660;6.778;2024-02-21T15:30:24;7.20;;;2.25;;
11305;SDS011;5708;50.660;6.778;2024-02-21T15:32:49;8.60;;;1.92;;
11305;SDS011;5708;50.660;6.778;2024-02-21T15:35:15;8.90;;;1.92;;
11305;SDS011;5708;50.660;6.778;2024-02-21T15:37:40;7.95;;;2.20;;
11305;SDS011;5708;50.660;6.778;2024-02-21T15:40:06;9.95;;;2.58;;
11305;SDS011;5708;50.660;6.778;2024-02-21T15:42:35;10.65;;;3.45;;
11305;SDS011;5708;50.660;6.778;2024-02-21T15:45:00;7.78;;;2.97;;